createdAt,value
2022-09-01T00:00:02.090Z,6.18
2022-09-01T00:02:31.544Z,6.15
2022-09-01T00:05:02.981Z,6.88
2022-09-01T00:07:31.987Z,5.68
2022-09-01T00:10:00.988Z,6.35
2022-09-01T00:12:29.797Z,5.50
2022-09-01T00:14:58.594Z,5.70
2022-09-01T00:17:27.181Z,5.68
2022-09-01T00:19:55.780Z,5.78
2022-09-01T00:22:25.686Z,5.85
2022-09-01T00:24:54.583Z,6.13
2022-09-01T00:27:27.943Z,6.00
2022-09-01T00:30:00.253Z,5.72
2022-09-01T00:32:29.095Z,6.40
2022-09-01T00:34:57.577Z,5.78
2022-09-01T00:37:27.537Z,6.00
2022-09-01T00:39:56.069Z,6.13
2022-09-01T00:42:25.056Z,5.32
2022-09-01T00:44:53.547Z,5.97
2022-09-01T00:47:22.830Z,5.20
2022-09-01T00:49:53.015Z,5.22
2022-09-01T00:52:23.988Z,5.00
2022-09-01T00:54:56.975Z,4.97
2022-09-01T00:57:25.555Z,4.13
2022-09-01T01:00:00.430Z,3.90
2022-09-01T01:02:29.412Z,3.70
2022-09-01T01:04:59.691Z,3.65
2022-09-01T01:07:29.038Z,3.63
2022-09-01T01:09:59.165Z,3.30
2022-09-01T01:12:29.904Z,3.55
2022-09-01T01:14:58.520Z,3.20
2022-09-01T01:17:27.114Z,3.53
2022-09-01T01:20:14.596Z,3.40
2022-09-01T01:23:05.878Z,3.00
2022-09-01T01:25:37.651Z,2.95
2022-09-01T01:28:12.014Z,2.50
2022-09-01T01:30:41.926Z,2.50
2022-09-01T01:33:11.574Z,2.75
2022-09-01T01:35:41.989Z,2.03
2022-09-01T01:38:11.323Z,2.08
2022-09-01T01:40:41.580Z,2.33
2022-09-01T01:43:12.265Z,2.08
2022-09-01T01:45:40.778Z,2.28
2022-09-01T01:48:10.595Z,2.60
2022-09-01T01:50:39.133Z,2.85
2022-09-01T01:53:10.942Z,2.10
2022-09-01T01:55:41.849Z,2.50
2022-09-01T01:58:12.173Z,2.28
2022-09-01T02:00:43.127Z,2.60
2022-09-01T02:03:12.828Z,2.50
2022-09-01T02:05:41.814Z,2.50
2022-09-01T02:08:11.431Z,2.72
2022-09-01T02:10:44.162Z,2.50
2022-09-01T02:13:16.478Z,2.50
2022-09-01T02:15:46.256Z,2.90
2022-09-01T02:18:18.185Z,2.60
2022-09-01T02:20:47.773Z,2.80
2022-09-01T02:23:18.038Z,2.90
2022-09-01T02:26:14.445Z,2.78
2022-09-01T02:28:40.046Z,2.67
2022-09-01T02:31:09.678Z,2.75
2022-09-01T02:33:39.798Z,2.90
2022-09-01T02:36:10.450Z,3.33
2022-09-01T02:38:41.861Z,3.08
2022-09-01T02:41:17.098Z,3.00
2022-09-01T02:43:46.593Z,3.05
2022-09-01T02:46:15.917Z,2.97
2022-09-01T02:48:46.178Z,3.15
2022-09-01T02:51:16.210Z,3.08
2022-09-01T02:53:46.033Z,3.00
2022-09-01T02:56:17.161Z,3.10
2022-09-01T02:58:46.896Z,3.10
2022-09-01T03:01:22.348Z,3.20
2022-09-01T03:03:51.418Z,2.88
2022-09-01T03:06:21.074Z,2.63
2022-09-01T03:08:50.268Z,2.80
2022-09-01T03:11:20.463Z,2.63
2022-09-01T03:13:48.938Z,3.10
2022-09-01T03:16:17.889Z,2.72
2022-09-01T03:18:46.692Z,2.70
2022-09-01T03:21:17.230Z,2.80
2022-09-01T03:23:46.203Z,2.50
2022-09-01T03:26:16.286Z,2.05
2022-09-01T03:28:46.557Z,2.42
2022-09-01T03:31:15.432Z,2.15
2022-09-01T03:33:44.190Z,2.35
2022-09-01T03:36:19.496Z,2.25
2022-09-01T03:38:49.256Z,2.22
2022-09-01T03:41:18.637Z,2.22
2022-09-01T03:43:48.947Z,2.08
2022-09-01T03:46:21.791Z,2.13
2022-09-01T03:48:51.402Z,2.22
2022-09-01T03:51:21.005Z,2.25
2022-09-01T03:53:49.478Z,2.35
2022-09-01T03:56:17.944Z,2.30
2022-09-01T03:58:48.265Z,2.20
2022-09-01T04:01:17.234Z,2.10
2022-09-01T04:03:49.200Z,2.25
2022-09-01T04:06:19.485Z,2.30
2022-09-01T04:08:48.250Z,2.25
2022-09-01T04:11:19.066Z,2.00
2022-09-01T04:13:49.212Z,2.10
2022-09-01T04:16:40.644Z,1.92
2022-09-01T04:19:16.286Z,1.85
2022-09-01T04:21:45.251Z,1.80
2022-09-01T04:24:15.457Z,1.80
2022-09-01T04:26:48.229Z,1.60
2022-09-01T04:29:19.403Z,1.70
2022-09-01T04:31:53.745Z,2.00
2022-09-01T04:34:22.736Z,1.95
2022-09-01T04:36:54.300Z,1.67
2022-09-01T04:39:23.230Z,1.52
2022-09-01T04:41:52.682Z,1.73
2022-09-01T04:44:22.700Z,1.30
2022-09-01T04:46:51.368Z,1.52
2022-09-01T04:49:22.588Z,1.48
2022-09-01T04:51:53.850Z,1.50
2022-09-01T04:54:23.560Z,1.30
2022-09-01T04:56:55.030Z,1.30
2022-09-01T04:59:27.370Z,1.40
2022-09-01T05:02:00.731Z,1.25
2022-09-01T05:04:33.790Z,1.67
2022-09-01T05:07:02.934Z,1.25
2022-09-01T05:09:32.738Z,1.20
2022-09-01T05:12:15.458Z,1.20
2022-09-01T05:14:48.731Z,1.10
2022-09-01T05:17:18.760Z,1.30
2022-09-01T05:19:50.638Z,1.30
2022-09-01T05:22:22.381Z,1.00
2022-09-01T05:24:55.053Z,1.10
2022-09-01T05:27:25.793Z,1.05
2022-09-01T05:29:55.617Z,1.30
2022-09-01T05:32:26.191Z,1.10
2022-09-01T05:34:56.650Z,1.15
2022-09-01T05:37:25.170Z,1.33
2022-09-01T05:39:54.031Z,1.20
2022-09-01T05:42:22.735Z,1.25
2022-09-01T05:44:55.668Z,1.08
2022-09-01T05:47:26.387Z,1.50
2022-09-01T05:49:58.557Z,1.30
2022-09-01T05:52:27.346Z,2.10
2022-09-01T05:55:00.202Z,1.77
2022-09-01T05:57:34.707Z,2.08
2022-09-01T06:00:10.817Z,2.80
2022-09-01T06:02:43.019Z,1.83
2022-09-01T06:05:13.739Z,2.35
2022-09-01T06:07:43.014Z,1.70
2022-09-01T06:10:13.034Z,2.15
2022-09-01T06:12:41.659Z,3.17
2022-09-01T06:15:16.293Z,2.38
2022-09-01T06:17:56.038Z,3.40
2022-09-01T06:20:24.601Z,2.58
2022-09-01T06:22:58.317Z,2.80
2022-09-01T06:25:32.429Z,3.22
2022-09-01T06:28:12.318Z,3.50
2022-09-01T06:30:42.157Z,4.20
2022-09-01T06:33:15.988Z,3.72
2022-09-01T06:35:52.322Z,4.85
2022-09-01T06:38:37.841Z,4.80
2022-09-01T06:41:14.349Z,6.00
2022-09-01T06:43:43.947Z,4.78
2022-09-01T06:46:20.147Z,5.28
2022-09-01T06:51:47.281Z,4.55
2022-09-01T06:54:24.208Z,4.85
2022-09-01T06:56:55.491Z,5.80
2022-09-01T06:59:34.947Z,5.65
2022-09-01T07:02:11.423Z,3.67
2022-09-01T07:04:50.020Z,4.40
2022-09-01T07:10:25.927Z,4.75
2022-09-01T07:19:03.839Z,4.97
2022-09-01T07:24:33.592Z,6.15
2022-09-01T07:27:10.897Z,5.35
2022-09-01T07:29:47.978Z,4.43
2022-09-01T07:42:31.434Z,5.57
2022-09-01T07:42:32.051Z,4.55
2022-09-01T07:42:56.829Z,3.40
2022-09-01T07:42:59.167Z,3.15
2022-09-01T07:44:55.125Z,3.20
2022-09-01T07:51:34.756Z,3.50
2022-09-01T07:53:48.868Z,3.88
2022-09-01T07:56:21.252Z,3.47
2022-09-01T07:58:55.760Z,3.30
2022-09-01T08:01:30.925Z,4.28
2022-09-01T08:04:10.562Z,4.60
2022-09-01T08:06:43.031Z,2.95
2022-09-01T08:09:37.237Z,4.03
2022-09-01T08:12:09.463Z,3.63
2022-09-01T08:17:51.844Z,3.53
2022-09-01T08:20:24.292Z,6.50
2022-09-01T08:23:00.073Z,5.10
2022-09-01T08:25:31.422Z,5.43
2022-09-01T08:28:03.021Z,3.95
2022-09-01T08:30:36.091Z,4.18
2022-09-01T08:33:12.451Z,4.35
2022-09-01T08:35:41.179Z,4.32
2022-09-01T08:38:09.717Z,3.42
2022-09-01T08:40:38.369Z,3.83
2022-09-01T08:43:15.426Z,7.32
2022-09-01T08:45:49.360Z,6.88
2022-09-01T08:49:09.895Z,6.85
2022-09-01T08:51:17.329Z,5.90
2022-09-01T08:53:51.819Z,3.53
2022-09-01T08:56:20.797Z,4.45
2022-09-01T08:58:49.665Z,4.40
2022-09-01T09:01:21.918Z,3.97
2022-09-01T09:03:55.197Z,4.75
2022-09-01T09:06:28.217Z,3.90
2022-09-01T09:08:58.312Z,4.95
2022-09-01T09:11:51.548Z,4.60
2022-09-01T09:14:27.127Z,4.93
2022-09-01T09:16:57.917Z,3.70
2022-09-01T09:19:27.303Z,4.03
2022-09-01T09:21:56.942Z,5.05
2022-09-01T09:24:29.194Z,5.28
2022-09-01T09:27:09.732Z,5.07
2022-09-01T09:29:39.890Z,4.00
2022-09-01T09:32:44.330Z,4.03
2022-09-01T09:35:19.233Z,4.43
2022-09-01T09:37:47.768Z,3.80
2022-09-01T09:40:19.094Z,4.35
2022-09-01T09:43:03.404Z,3.80
2022-09-01T09:45:33.950Z,4.20
2022-09-01T09:48:10.875Z,4.15
2022-09-01T09:50:40.371Z,3.65
2022-09-01T09:53:16.358Z,4.38
2022-09-01T09:55:56.640Z,6.68
2022-09-01T09:58:27.636Z,4.95
2022-09-01T10:01:04.011Z,4.90
2022-09-01T10:03:40.887Z,5.05
2022-09-01T10:06:12.362Z,4.72
2022-09-01T10:08:45.490Z,4.18
2022-09-01T10:11:33.415Z,4.00
2022-09-01T10:14:06.885Z,4.55
2022-09-01T10:16:36.709Z,4.93
2022-09-01T10:19:12.599Z,4.57
2022-09-01T10:21:42.526Z,5.10
2022-09-01T10:24:17.768Z,3.88
2022-09-01T10:26:52.360Z,4.47
2022-09-01T10:29:22.761Z,4.20
2022-09-01T10:32:03.511Z,4.00
2022-09-01T10:34:42.383Z,3.70
2022-09-01T10:37:11.713Z,3.42
2022-09-01T10:39:55.789Z,3.38
2022-09-01T10:42:24.522Z,4.00
2022-09-01T10:44:58.187Z,3.67
2022-09-01T10:47:30.077Z,4.30
2022-09-01T10:50:07.183Z,3.97
2022-09-01T10:52:56.833Z,4.43
2022-09-01T10:55:27.265Z,3.83
2022-09-01T10:58:09.448Z,4.18
2022-09-01T11:03:52.278Z,4.55
2022-09-01T11:06:38.838Z,4.43
2022-09-01T11:09:21.291Z,3.85
2022-09-01T11:14:26.784Z,4.35
2022-09-01T11:17:10.119Z,4.70
2022-09-01T11:19:42.930Z,4.00
2022-09-01T11:22:27.915Z,4.38
2022-09-01T11:25:15.702Z,4.03
2022-09-01T11:27:59.231Z,5.18
2022-09-01T11:30:35.471Z,5.30
2022-09-01T11:33:08.875Z,4.10
2022-09-01T11:35:37.564Z,3.80
2022-09-01T11:38:08.699Z,4.28
2022-09-01T11:40:39.144Z,4.63
2022-09-01T11:43:12.444Z,4.15
2022-09-01T11:45:57.626Z,3.90
2022-09-01T11:48:26.953Z,4.30
2022-09-01T11:51:00.126Z,5.15
2022-09-01T11:53:29.120Z,4.10
2022-09-01T11:56:16.647Z,5.10
2022-09-01T11:58:45.141Z,4.45
2022-09-01T12:01:15.250Z,4.20
2022-09-01T12:03:44.125Z,4.30
2022-09-01T12:06:16.279Z,4.88
2022-09-01T12:08:52.815Z,3.97
2022-09-01T12:11:25.678Z,4.07
2022-09-01T12:13:58.639Z,4.28
2022-09-01T12:16:27.451Z,3.90
2022-09-01T12:18:58.228Z,4.72
2022-09-01T12:21:28.207Z,4.50
2022-09-01T12:24:11.631Z,3.75
2022-09-01T12:26:42.510Z,4.47
2022-09-01T12:29:11.632Z,4.22
2022-09-01T12:31:43.360Z,4.28
2022-09-01T12:34:26.228Z,4.00
2022-09-01T12:37:06.799Z,3.75
2022-09-01T12:39:36.087Z,4.88
2022-09-01T12:42:07.924Z,4.07
2022-09-01T12:44:44.635Z,4.22
2022-09-01T12:47:14.702Z,3.85
2022-09-01T12:49:45.605Z,4.30
2022-09-01T12:52:25.466Z,3.70
2022-09-01T12:54:56.014Z,4.10
2022-09-01T12:57:30.889Z,3.33
2022-09-01T13:00:18.143Z,3.90
2022-09-01T13:02:48.283Z,3.55
2022-09-01T13:05:28.428Z,3.50
2022-09-01T13:08:01.439Z,4.03
2022-09-01T13:10:35.088Z,3.67
2022-09-01T13:13:10.265Z,3.60
2022-09-01T13:15:40.158Z,3.47
2022-09-01T13:18:10.755Z,3.65
2022-09-01T13:20:42.100Z,4.03
2022-09-01T13:23:12.634Z,3.90
2022-09-01T13:25:42.078Z,4.07
2022-09-01T13:28:12.126Z,3.75
2022-09-01T13:30:40.726Z,5.22
2022-09-01T13:33:20.080Z,4.90
2022-09-01T13:35:49.838Z,3.72
2022-09-01T13:38:18.546Z,3.55
2022-09-01T13:40:47.835Z,3.95
2022-09-01T13:43:20.757Z,4.47
2022-09-01T13:45:50.088Z,4.53
2022-09-01T13:48:20.036Z,4.57
2022-09-01T13:53:38.702Z,3.70
2022-09-01T13:56:10.503Z,4.20
2022-09-01T13:58:41.142Z,4.88
2022-09-01T14:01:09.743Z,4.03
2022-09-01T14:03:38.393Z,3.58
2022-09-01T14:06:08.248Z,4.55
2022-09-01T14:08:36.685Z,4.30
2022-09-01T14:11:05.228Z,4.70
2022-09-01T14:13:34.512Z,3.92
2022-09-01T14:16:04.632Z,3.97
2022-09-01T14:18:36.973Z,4.55
2022-09-01T14:21:05.602Z,4.43
2022-09-01T14:23:34.719Z,4.05
2022-09-01T14:26:03.364Z,4.00
2022-09-01T14:28:31.803Z,5.97
2022-09-01T14:31:09.369Z,4.88
2022-09-01T14:33:41.683Z,4.20
2022-09-01T14:36:14.542Z,5.05
2022-09-01T14:38:43.598Z,4.45
2022-09-01T14:41:15.289Z,4.03
2022-09-01T14:43:44.024Z,4.20
2022-09-01T14:46:14.166Z,4.55
2022-09-01T14:48:43.418Z,4.40
2022-09-01T14:51:11.917Z,4.63
2022-09-01T14:53:40.397Z,4.55
2022-09-01T14:56:08.910Z,4.85
2022-09-01T14:58:37.408Z,5.30
2022-09-01T15:01:23.605Z,4.30
2022-09-01T15:03:56.693Z,4.43
2022-09-01T15:06:25.741Z,4.25
2022-09-01T15:08:54.230Z,4.30
2022-09-01T15:11:22.742Z,4.20
2022-09-01T15:13:52.654Z,4.13
2022-09-01T15:16:22.396Z,4.00
2022-09-01T15:18:50.902Z,4.28
2022-09-01T15:21:24.643Z,4.20
2022-09-01T15:23:54.038Z,3.55
2022-09-01T15:26:23.010Z,3.80
2022-09-01T15:28:52.377Z,4.03
2022-09-01T15:31:32.181Z,3.50
2022-09-01T15:34:02.104Z,3.90
2022-09-01T15:36:32.225Z,4.10
2022-09-01T15:39:00.729Z,3.53
2022-09-01T15:41:29.871Z,3.88
2022-09-01T15:43:58.670Z,3.72
2022-09-01T15:46:32.645Z,3.58
2022-09-01T15:49:01.486Z,3.92
2022-09-01T15:51:32.933Z,3.72
2022-09-01T15:54:02.664Z,3.70
2022-09-01T15:56:32.763Z,4.25
2022-09-01T15:59:04.146Z,3.25
2022-09-01T16:01:34.146Z,4.05
2022-09-01T16:04:05.192Z,3.35
2022-09-01T16:06:35.972Z,4.07
2022-09-01T16:09:04.592Z,3.33
2022-09-01T16:11:33.100Z,3.58
2022-09-01T16:14:01.942Z,3.40
2022-09-01T16:16:40.836Z,3.50
2022-09-01T16:19:17.726Z,3.67
2022-09-01T16:21:53.000Z,3.90
2022-09-01T16:24:22.423Z,3.33
2022-09-01T16:26:51.012Z,4.38
2022-09-01T16:29:22.737Z,3.53
2022-09-01T16:31:55.917Z,3.40
2022-09-01T16:34:28.320Z,3.35
2022-09-01T16:37:02.475Z,3.10
2022-09-01T16:39:36.955Z,3.75
2022-09-01T16:42:13.470Z,3.42
2022-09-01T16:44:45.456Z,3.85
2022-09-01T16:47:22.402Z,3.15
2022-09-01T16:49:54.654Z,3.08
2022-09-01T16:52:26.585Z,3.28
2022-09-01T16:55:05.989Z,3.53
2022-09-01T16:57:41.321Z,3.30
2022-09-01T17:00:13.025Z,3.08
2022-09-01T17:02:47.961Z,3.60
2022-09-01T17:05:22.060Z,3.33
2022-09-01T17:07:54.211Z,3.55
2022-09-01T17:10:29.395Z,3.40
2022-09-01T17:12:58.670Z,3.70
2022-09-01T17:15:36.332Z,3.30
2022-09-01T17:18:09.931Z,3.53
2022-09-01T17:20:57.878Z,2.90
2022-09-01T17:23:29.937Z,4.00
2022-09-01T17:26:02.061Z,3.30
2022-09-01T17:28:34.440Z,3.05
2022-09-01T17:31:06.960Z,3.65
2022-09-01T17:33:38.947Z,3.85
2022-09-01T17:36:14.078Z,3.40
2022-09-01T17:38:54.217Z,3.38
2022-09-01T17:41:29.273Z,3.35
2022-09-01T17:44:00.199Z,3.10
2022-09-01T17:46:34.638Z,3.83
2022-09-01T17:49:05.199Z,3.33
2022-09-01T17:51:37.902Z,3.80
2022-09-01T17:54:12.201Z,3.30
2022-09-01T17:56:46.102Z,3.45
2022-09-01T17:59:18.754Z,3.28
2022-09-01T18:01:55.486Z,3.45
2022-09-01T18:04:44.455Z,3.30
2022-09-01T18:07:18.323Z,3.30
2022-09-01T18:09:50.906Z,3.40
2022-09-01T18:12:20.891Z,3.28
2022-09-01T18:14:54.399Z,3.28
2022-09-01T18:17:27.225Z,3.67
2022-09-01T18:20:08.670Z,3.88
2022-09-01T18:22:44.872Z,3.55
2022-09-01T18:25:28.894Z,3.38
2022-09-01T18:27:58.171Z,3.72
2022-09-01T18:30:52.039Z,3.58
2022-09-01T18:33:27.733Z,3.72
2022-09-01T18:36:01.936Z,3.60
2022-09-01T18:38:35.303Z,3.95
2022-09-01T18:41:11.353Z,4.03
2022-09-01T18:43:42.966Z,3.47
2022-09-01T18:46:15.986Z,3.83
2022-09-01T18:48:51.666Z,3.72
2022-09-01T18:51:22.576Z,3.80
2022-09-01T18:53:53.946Z,3.53
2022-09-01T18:56:31.456Z,4.10
2022-09-01T18:59:07.494Z,3.95
2022-09-01T19:01:37.943Z,3.65
2022-09-01T19:04:11.123Z,3.80
2022-09-01T19:06:45.382Z,4.05
2022-09-01T19:09:16.478Z,3.75
2022-09-01T19:11:53.316Z,3.65
2022-09-01T19:14:26.919Z,4.40
2022-09-01T19:17:00.589Z,3.85
2022-09-01T19:19:36.755Z,3.50
2022-09-01T19:22:05.765Z,4.05
2022-09-01T19:24:37.830Z,3.60
2022-09-01T19:27:10.774Z,4.07
2022-09-01T19:29:42.960Z,4.20
2022-09-01T19:32:18.225Z,3.65
2022-09-01T19:34:48.682Z,3.47
2022-09-01T19:37:17.305Z,4.00
2022-09-01T19:39:50.861Z,3.80
2022-09-01T19:42:26.614Z,4.07
2022-09-01T19:45:00.490Z,4.00
2022-09-01T19:47:39.745Z,3.67
2022-09-01T19:50:11.815Z,3.90
2022-09-01T19:52:42.248Z,3.60
2022-09-01T19:55:14.122Z,3.78
2022-09-01T19:57:47.124Z,3.85
2022-09-01T20:00:17.293Z,4.03
2022-09-01T20:02:51.246Z,3.88
2022-09-01T20:05:26.007Z,4.03
2022-09-01T20:07:56.453Z,3.95
2022-09-01T20:10:29.235Z,4.25
2022-09-01T20:13:09.149Z,3.63
2022-09-01T20:15:42.401Z,3.42
2022-09-01T20:18:12.758Z,3.85
2022-09-01T20:20:44.943Z,3.55
2022-09-01T20:23:17.774Z,3.80
2022-09-01T20:25:49.464Z,4.13
2022-09-01T20:28:22.623Z,3.45
2022-09-01T20:30:53.939Z,3.50
2022-09-01T20:33:27.100Z,3.90
2022-09-01T20:35:58.511Z,3.83
2022-09-01T20:38:46.359Z,3.80
2022-09-01T20:41:19.078Z,3.80
2022-09-01T20:43:52.212Z,3.58
2022-09-01T20:46:21.168Z,3.70
2022-09-01T20:48:49.767Z,3.40
2022-09-01T20:51:27.692Z,3.40
2022-09-01T20:54:03.181Z,3.70
2022-09-01T20:56:35.693Z,3.70
2022-09-01T20:59:12.293Z,4.00
2022-09-01T21:01:43.441Z,3.90
2022-09-01T21:04:14.485Z,3.70
2022-09-01T21:06:50.883Z,3.53
2022-09-01T21:09:24.539Z,3.30
2022-09-01T21:11:55.088Z,3.45
2022-09-01T21:14:35.371Z,3.70
2022-09-01T21:17:08.384Z,3.72
2022-09-01T21:19:41.655Z,3.40
2022-09-01T21:22:12.294Z,3.63
2022-09-01T21:24:42.022Z,3.50
2022-09-01T21:27:16.079Z,3.50
2022-09-01T21:29:49.936Z,4.05
2022-09-01T21:32:18.643Z,3.60
2022-09-01T21:34:47.500Z,3.40
2022-09-01T21:37:16.283Z,3.15
2022-09-01T21:39:44.791Z,3.40
2022-09-01T21:42:14.671Z,3.30
2022-09-01T21:44:44.679Z,3.50
2022-09-01T21:47:14.787Z,3.33
2022-09-01T21:49:43.408Z,3.15
2022-09-01T21:52:11.932Z,3.38
2022-09-01T21:54:40.459Z,3.40
2022-09-01T21:57:08.911Z,3.83
2022-09-01T21:59:37.391Z,3.50
2022-09-01T22:02:07.106Z,3.42
2022-09-01T22:04:38.390Z,3.40
2022-09-01T22:07:09.181Z,3.55
2022-09-01T22:09:37.678Z,3.75
2022-09-01T22:12:06.555Z,3.33
2022-09-01T22:14:35.089Z,3.50
2022-09-01T22:17:04.403Z,3.97
2022-09-01T22:19:34.576Z,3.50
2022-09-01T22:22:05.114Z,3.70
2022-09-01T22:24:34.150Z,3.65
2022-09-01T22:27:02.659Z,3.58
2022-09-01T22:29:31.509Z,3.50
2022-09-01T22:32:00.351Z,3.58
2022-09-01T22:34:28.888Z,3.85
2022-09-01T22:36:57.361Z,2.97
2022-09-01T22:39:27.318Z,3.60
2022-09-01T22:41:55.797Z,3.42
2022-09-01T22:44:24.392Z,3.50
2022-09-01T22:46:53.782Z,3.67
2022-09-01T22:49:22.257Z,3.63
2022-09-01T22:51:50.793Z,3.50
2022-09-01T22:54:19.739Z,3.30
2022-09-01T22:56:52.528Z,3.40
2022-09-01T22:59:23.251Z,3.25
2022-09-01T23:01:53.146Z,3.15
2022-09-01T23:04:21.699Z,3.22
2022-09-01T23:06:50.821Z,3.20
2022-09-01T23:09:19.800Z,3.33
2022-09-01T23:11:50.440Z,3.03
2022-09-01T23:14:19.573Z,3.00
2022-09-01T23:16:51.085Z,3.20
2022-09-01T23:19:20.205Z,3.20
2022-09-01T23:21:49.079Z,3.15
2022-09-01T23:24:19.033Z,3.05
2022-09-01T23:26:49.881Z,3.22
2022-09-01T23:29:18.403Z,3.15
2022-09-01T23:31:47.205Z,3.28
2022-09-01T23:34:17.233Z,2.90
2022-09-01T23:36:45.744Z,3.17
2022-09-01T23:39:14.257Z,3.40
2022-09-01T23:41:42.829Z,3.40
2022-09-01T23:44:14.356Z,3.10
2022-09-01T23:46:44.290Z,3.00
2022-09-01T23:49:13.714Z,3.80
2022-09-01T23:51:42.675Z,3.45
2022-09-01T23:54:11.336Z,2.97
2022-09-01T23:56:40.287Z,3.17
2022-09-01T23:59:09.061Z,2.95
